Flight Track Log - Related Links

Times and Time Zones

All times are in EDT time to prevent confusion due to time zone crossing. See the SWA1787 flight status page for this flight to view local times or setup timezone preferences in your user account.

Time Position Orientation Groundspeed Altitude Reporting Facility
EDT Latitude Longitude Course Direction KTS MPH feet Rate Location/Type
Sat 08:18:20 PM 27.9000 -82.5667 192° South 227 261 3,400  Level Tampa TRACON
Sat 08:20:09 PM 27.7750 -82.5989 193° South 262 302 9,300 3,302 Climbing Miami Center
Sat 08:21:09 PM 27.6911 -82.6086 186° South 289 333 12,700 3,800 Climbing Miami Center
Sat 08:22:09 PM 27.6278 -82.6806 225° Southwest 302 348 16,900 3,750 Climbing Miami Center
Sat 08:23:09 PM 27.5783 -82.7669 237° Southwest 313 360 20,200 3,250 Climbing Miami Center
Sat 08:24:09 PM 27.5264 -82.8650 239° Southwest 336 387 23,400 2,400 Climbing Miami Center
Sat 08:25:09 PM 27.4569 -82.9267 218° Southwest 341 392 25,000 800 Climbing Miami Center
Sat 08:26:09 PM 27.3717 -82.9714 205° Southwest 341 392 25,000  Level Miami Center
Sat 08:27:09 PM 27.2761 -82.9569 172° South 322 371 25,000  Level Miami Center
Sat 08:28:09 PM 27.2050 -82.8622 130° Southeast 316 364 25,000  Level Miami Center
Sat 08:29:09 PM 27.1408 -82.7492 123° Southeast 363 418 25,000  Level Miami Center
Sat 08:30:09 PM 27.0786 -82.6389 122° Southeast 396 456 25,000  Level Miami Center
Sat 08:31:09 PM 27.0083 -82.5142 122° Southeast 421 484 25,000  Level Miami Center
Sat 08:32:09 PM 26.9497 -82.4136 123° Southeast 433 498 25,000  Level Miami Center
Sat 08:33:09 PM 26.8831 -82.2986 123° Southeast 433 498 25,000  Level Miami Center
Sat 08:34:09 PM 26.8203 -82.1886 123° Southeast 433 498 25,000  Level Miami Center
Sat 08:35:09 PM 26.7556 -82.0767 123° Southeast 433 498 25,000  Level Miami Center
Sat 08:36:09 PM 26.6864 -81.9642 125° Southeast 432 497 25,000  Level Miami Center
Sat 08:37:09 PM 26.6217 -81.8500 122° Southeast 438 504 25,000 -350 Level Miami Center
Sat 08:38:09 PM 26.5522 -81.7378 125° Southeast 438 504 24,300 -1,600 Descending Miami Center
Sat 08:39:09 PM 26.4972 -81.6336 121° Southeast 432 497 21,800 -2,650 Descending Miami Center
Sat 08:40:09 PM 26.4239 -81.5100 124° Southeast 421 484 19,000 -2,600 Descending Miami Center
Sat 08:41:09 PM 26.3667 -81.4058 121° Southeast 409 471 16,600 -2,400 Descending Miami Center
Sat 08:42:09 PM 26.3069 -81.3108 125° Southeast 396 456 14,200 -2,367 Descending Miami Center
Sat 08:42:58 PM 26.2572 -81.2325 125° Southeast 365 420 12,300 -2,227 Descending Miami Center
Sat 08:43:46 PM 26.2153 -81.1639 124° Southeast 351 404 10,600 -1,690 Descending Miami Center
Sat 08:44:09 PM 26.1997 -81.1264 115° Southeast 363 418 10,300 -590 Descending Miami Center
Sat 08:44:47 PM 26.1636 -81.0764 129° Southeast 297 342 10,000 -800 Descending Miami Center
Sat 08:45:09 PM 26.1539 -81.0506 113° Southeast 327 376 9,500 -1,452 Descending Miami Center
Sat 08:45:49 PM 26.1219 -81.0056 128° Southeast 270 311 8,500 -1,500 Descending Miami Center
Sat 08:46:09 PM 26.1122 -80.9775 111° Southeast 296 341 8,000 -492 Descending Miami Center
Sat 08:46:50 PM 26.1011 -80.9261 104° East 267 307 8,000 -100 Level Miami Center
Sat 08:47:09 PM 26.0978 -80.8983 98° East 259 298 7,900  Descending Miami Center
Sat 08:47:44 PM 26.0822 -80.8561 112° Southeast 257 296 8,000 -100 Climbing Miami Center
Sat 08:48:09 PM 26.0789 -80.8258 97° East 252 290 7,800 -689 Descending Miami Center
Sat 08:48:45 PM 26.0756 -80.7867 95° East 219 252 7,300 -900 Descending Miami Center
Sat 08:49:09 PM 26.0806 -80.7544 80° East 236 272 6,900 -295 Descending Miami Center
Sat 08:49:46 PM 26.0775 -80.7172 95° East 217 250 7,000 -300 Climbing Miami Center
Sat 08:50:09 PM 26.0803 -80.6919 83° East 223 257 6,600 -982 Descending Miami Center
Sat 08:50:41 PM 26.0769 -80.6594 97° East 204 235 6,100 -1,000 Descending Miami Center
Sat 08:51:09 PM 26.0797 -80.6294 84° East 211 243 5,600 -984 Descending Miami Center
Sat 08:51:42 PM 26.0783 -80.6017 93° East 192 221 5,100 -700 Descending Miami Center
Sat 08:52:09 PM 26.0814 -80.5717 84° East 199 229 4,900 -98 Descending Miami Center
Sat 08:52:43 PM 26.0758 -80.5436 102° East 187 215 5,000 63 Climbing Miami Center
Sat 08:53:44 PM 26.0772 -80.4814 89° East 186 214 5,000 -422 Level Miami Center
Sat 08:54:51 PM 26.0747 -80.4164 92° East 190 219 4,100 -844 Descending Miami Center
Sat 08:55:52 PM 26.0761 -80.3611 88° East 176 203 3,200 -938 Descending Miami Center
Sat 08:56:59 PM 26.0775 -80.3008 89° East 170 196 2,100 -885 Descending Miami Center
Sat 08:57:54 PM 26.0742 -80.2569 95° East 133 153 1,400 -626 Descending Miami Center
Sat 08:58:54 PM 26.0753 -80.2153 88° East 131 151 900 -500 Descending Miami Center
Sat 09:00:00 PM 26.0726 -80.1527 180° South  Level Estimated
Sat 09:07:00 PM 26.0667 -80.1500 180° South  Level FlightAware Approximate
Sat 09:08:00 PM 26.0726 -80.1527 180° South  Level Estimated

Login

Don't have an account? Register now (free) for customized features, flight alerts, and more!